Time;durP1;ratioP1;P1;durP2;ratioP2;P2;SDS_P1;SDS_P2;PMS_P1;PMS_P2;Temp;Humidity;BMP_temperature;BMP_pressure;BME280_temperature;BME280_humidity;BME280_pressure;Samples;Min_cycle;Max_cycle;Signal;HPM_P1;HPM_P2
2021/06/19 00:00:30;;;;;;;15.35;9.70;;;;;;;;;;5036495;28;20048;-78
2021/06/19 00:02:58;;;;;;;11.63;9.38;;;;;;;;;;5036704;28;20040;-78
2021/06/19 00:05:25;;;;;;;13.88;8.57;;;;;;;;;;5034867;28;20480;-78
2021/06/19 00:07:51;;;;;;;11.98;9.18;;;;;;;;;;5036107;28;20049;-78
2021/06/19 00:10:18;;;;;;;16.50;10.82;;;;;;;;;;5048055;28;20049;-78
2021/06/19 00:12:45;;;;;;;24.08;14.52;;;;;;;;;;5056273;28;20043;-78
2021/06/19 00:15:12;;;;;;;17.65;14.85;;;;;;;;;;5053920;28;20068;-78
2021/06/19 00:17:39;;;;;;;22.23;14.10;;;;;;;;;;5044431;28;20471;-78
2021/06/19 00:20:13;;;;;;;21.20;13.57;;;;;;;;;;5055659;28;20083;-78
2021/06/19 00:22:39;;;;;;;18.00;13.65;;;;;;;;;;5055501;28;20037;-78
2021/06/19 00:25:08;;;;;;;16.27;12.15;;;;;;;;;;5055611;28;20457;-78
2021/06/19 00:27:34;;;;;;;15.50;12.30;;;;;;;;;;5055209;28;20440;-78
2021/06/19 00:30:00;;;;;;;17.00;11.50;;;;;;;;;;5054916;28;20410;-78
2021/06/19 00:32:26;;;;;;;18.35;11.27;;;;;;;;;;5055448;28;20025;-78
2021/06/19 00:34:52;;;;;;;19.00;11.27;;;;;;;;;;5054036;28;20035;-78
2021/06/19 00:37:17;;;;;;;21.77;11.70;;;;;;;;;;5054774;28;20075;-78
2021/06/19 00:39:43;;;;;;;14.93;10.70;;;;;;;;;;5054817;28;20123;-78
2021/06/19 00:42:08;;;;;;;18.58;10.75;;;;;;;;;;5054319;28;20068;-77
2021/06/19 00:44:33;;;;;;;27.42;12.57;;;;;;;;;;5054127;28;20045;-78
2021/06/19 00:47:00;;;;;;;26.95;11.75;;;;;;;;;;5046321;28;20029;-78
2021/06/19 00:49:25;;;;;;;32.28;15.50;;;;;;;;;;5037204;28;20423;-78
2021/06/19 00:51:52;;;;;;;20.10;11.93;;;;;;;;;;5034173;28;20060;-78
2021/06/19 00:54:18;;;;;;;23.38;12.57;;;;;;;;;;5034402;28;20038;-78
2021/06/19 00:56:45;;;;;;;24.17;11.90;;;;;;;;;;5034129;28;20518;-78
2021/06/19 00:59:11;;;;;;;15.45;12.73;;;;;;;;;;5034505;28;20100;-78
2021/06/19 01:01:37;;;;;;;22.02;11.27;;;;;;;;;;5034348;28;20471;-78
2021/06/19 01:04:04;;;;;;;14.65;9.98;;;;;;;;;;5033462;28;20383;-78
2021/06/19 01:06:32;;;;;;;22.23;11.93;;;;;;;;;;5033325;28;20116;-78
2021/06/19 01:08:57;;;;;;;17.52;11.43;;;;;;;;;;5038823;28;20159;-78
2021/06/19 01:11:25;;;;;;;19.25;10.70;;;;;;;;;;5052903;28;20124;-78
2021/06/19 01:13:51;;;;;;;18.23;11.45;;;;;;;;;;5051704;28;20158;-78
2021/06/19 01:16:18;;;;;;;17.52;10.60;;;;;;;;;;5053129;28;20430;-78
2021/06/19 01:18:44;;;;;;;21.95;11.15;;;;;;;;;;5042062;28;20029;-78
2021/06/19 01:21:15;;;;;;;37.42;11.82;;;;;;;;;;5043683;28;20392;-78
2021/06/19 01:23:42;;;;;;;16.75;11.40;;;;;;;;;;5032942;28;20033;-78
2021/06/19 01:26:07;;;;;;;18.40;10.25;;;;;;;;;;5034983;28;20033;-78
2021/06/19 01:28:32;;;;;;;17.52;11.88;;;;;;;;;;5043533;28;20041;-78
2021/06/19 01:30:58;;;;;;;20.38;12.43;;;;;;;;;;5040261;28;20037;-78
2021/06/19 01:33:24;;;;;;;22.98;11.35;;;;;;;;;;5052607;28;20086;-78
2021/06/19 01:35:50;;;;;;;24.75;12.68;;;;;;;;;;5052730;28;20087;-78
2021/06/19 01:38:15;;;;;;;16.77;11.88;;;;;;;;;;5052724;28;20029;-78
2021/06/19 01:40:41;;;;;;;21.70;11.75;;;;;;;;;;5052570;28;20043;-78
2021/06/19 01:43:06;;;;;;;19.13;11.48;;;;;;;;;;5051415;28;20031;-78
2021/06/19 01:45:34;;;;;;;17.40;12.43;;;;;;;;;;5051266;28;20041;-78
2021/06/19 01:48:07;;;;;;;16.10;12.48;;;;;;;;;;5050014;28;20163;-78
2021/06/19 01:50:34;;;;;;;13.98;11.95;;;;;;;;;;5044142;28;20357;-78
2021/06/19 01:53:01;;;;;;;28.80;14.77;;;;;;;;;;5033307;28;20041;-78
2021/06/19 01:55:27;;;;;;;20.70;13.35;;;;;;;;;;5031804;28;20116;-78
2021/06/19 01:57:54;;;;;;;16.70;11.68;;;;;;;;;;5031752;28;20056;-78
2021/06/19 02:00:25;;;;;;;21.08;12.20;;;;;;;;;;5034108;28;20021;-78
2021/06/19 02:02:51;;;;;;;18.25;11.65;;;;;;;;;;5034339;28;20044;-78
2021/06/19 02:05:18;;;;;;;14.48;10.68;;;;;;;;;;5035535;28;20041;-78
2021/06/19 02:07:52;;;;;;;17.45;11.05;;;;;;;;;;5036428;28;20064;-78
2021/06/19 02:10:22;;;;;;;17.63;11.45;;;;;;;;;;5039832;28;20110;-78
2021/06/19 02:12:48;;;;;;;15.55;11.55;;;;;;;;;;5056248;28;20450;-78
2021/06/19 02:15:14;;;;;;;17.48;11.63;;;;;;;;;;5056190;28;20043;-78
2021/06/19 02:17:39;;;;;;;14.38;10.02;;;;;;;;;;5055588;28;20123;-78
2021/06/19 02:20:07;;;;;;;19.73;10.15;;;;;;;;;;5042884;28;20033;-78
2021/06/19 02:22:34;;;;;;;18.23;11.25;;;;;;;;;;5043312;28;20128;-78
2021/06/19 02:25:00;;;;;;;24.02;12.63;;;;;;;;;;5046449;28;20030;-78
2021/06/19 02:27:25;;;;;;;17.52;11.80;;;;;;;;;;5043555;28;20063;-78
2021/06/19 02:29:51;;;;;;;25.05;12.88;;;;;;;;;;5055814;28;20475;-78
2021/06/19 02:32:16;;;;;;;15.38;10.95;;;;;;;;;;5055769;28;20107;-78
2021/06/19 02:34:42;;;;;;;17.42;8.90;;;;;;;;;;5055746;28;20493;-78
2021/06/19 02:37:07;;;;;;;10.77;8.48;;;;;;;;;;5055573;28;20040;-78
2021/06/19 02:39:33;;;;;;;16.58;11.07;;;;;;;;;;5054026;28;20064;-78
2021/06/19 02:41:58;;;;;;;13.90;10.65;;;;;;;;;;5054358;28;20493;-78
2021/06/19 02:44:24;;;;;;;13.57;10.68;;;;;;;;;;5054337;28;20102;-78
2021/06/19 02:46:49;;;;;;;13.00;10.02;;;;;;;;;;5055316;28;20037;-78
2021/06/19 02:49:15;;;;;;;16.98;9.30;;;;;;;;;;5051192;28;20032;-78
2021/06/19 02:51:40;;;;;;;23.33;10.63;;;;;;;;;;5047782;28;20397;-78
2021/06/19 02:54:06;;;;;;;23.05;11.18;;;;;;;;;;5055591;28;20033;-78
2021/06/19 02:56:31;;;;;;;27.63;13.18;;;;;;;;;;5046390;28;20450;-78
2021/06/19 02:58:57;;;;;;;26.80;11.18;;;;;;;;;;5043299;28;20025;-78
2021/06/19 03:01:22;;;;;;;25.67;13.40;;;;;;;;;;5035406;28;20415;-78
2021/06/19 03:03:48;;;;;;;31.33;12.55;;;;;;;;;;5037536;28;20075;-78
2021/06/19 03:06:14;;;;;;;16.60;11.70;;;;;;;;;;5035234;28;20037;-78
2021/06/19 03:08:40;;;;;;;17.60;11.07;;;;;;;;;;5035153;28;20161;-78
2021/06/19 03:11:05;;;;;;;17.38;11.15;;;;;;;;;;5051321;28;20521;-78
2021/06/19 03:13:31;;;;;;;14.85;11.50;;;;;;;;;;5055372;28;20044;-78
2021/06/19 03:15:56;;;;;;;24.30;12.30;;;;;;;;;;5054343;28;20375;-78
2021/06/19 03:18:22;;;;;;;32.33;12.30;;;;;;;;;;5054995;28;20075;-78
2021/06/19 03:20:48;;;;;;;18.30;12.70;;;;;;;;;;5046522;28;20071;-78
2021/06/19 03:23:14;;;;;;;23.70;12.93;;;;;;;;;;5034620;28;20108;-78
2021/06/19 03:25:42;;;;;;;22.17;12.90;;;;;;;;;;5034296;28;20345;-78
2021/06/19 03:28:09;;;;;;;23.52;11.10;;;;;;;;;;5037804;28;20045;-78
2021/06/19 03:30:38;;;;;;;29.88;11.45;;;;;;;;;;5034663;28;20037;-78
2021/06/19 03:33:04;;;;;;;27.52;11.38;;;;;;;;;;5034560;28;20084;-78
2021/06/19 03:35:30;;;;;;;23.55;12.40;;;;;;;;;;5041220;28;20158;-78
2021/06/19 03:37:56;;;;;;;19.92;10.70;;;;;;;;;;5046333;28;20052;-78
2021/06/19 03:40:23;;;;;;;21.77;12.07;;;;;;;;;;5054350;28;20033;-76
2021/06/19 03:42:50;;;;;;;32.50;12.85;;;;;;;;;;5054637;28;20395;-78
2021/06/19 03:45:17;;;;;;;23.60;14.10;;;;;;;;;;5051475;28;20052;-77
2021/06/19 03:47:44;;;;;;;27.65;12.48;;;;;;;;;;5040909;28;20029;-76
2021/06/19 03:50:13;;;;;;;15.60;11.55;;;;;;;;;;5034532;28;20041;-76
2021/06/19 03:52:38;;;;;;;16.85;11.55;;;;;;;;;;5034487;28;20052;-76
2021/06/19 03:55:05;;;;;;;30.67;10.70;;;;;;;;;;5034099;28;20527;-76
2021/06/19 03:57:34;;;;;;;22.35;10.32;;;;;;;;;;5033213;28;20029;-77
2021/06/19 04:00:00;;;;;;;21.98;12.43;;;;;;;;;;5034050;28;20041;-77
2021/06/19 04:02:25;;;;;;;23.50;12.05;;;;;;;;;;5040124;28;20099;-76
2021/06/19 04:04:52;;;;;;;19.40;11.30;;;;;;;;;;5018308;28;20025;-78
2021/06/19 04:07:18;;;;;;;28.05;13.32;;;;;;;;;;5035933;28;20044;-79
2021/06/19 04:09:49;;;;;;;18.63;11.80;;;;;;;;;;5037127;28;20483;-79
2021/06/19 04:12:15;;;;;;;36.63;11.43;;;;;;;;;;5056567;28;20062;-81
2021/06/19 04:14:40;;;;;;;20.77;10.55;;;;;;;;;;5056680;28;20044;-79
2021/06/19 04:17:08;;;;;;;26.27;11.23;;;;;;;;;;5055849;28;20036;-79
2021/06/19 04:19:38;;;;;;;30.38;11.48;;;;;;;;;;5055996;28;20068;-78
2021/06/19 04:22:05;;;;;;;16.92;10.40;;;;;;;;;;5056040;28;20390;-77
2021/06/19 04:24:31;;;;;;;27.85;15.10;;;;;;;;;;5055052;28;20125;-80
2021/06/19 04:26:56;;;;;;;24.85;13.02;;;;;;;;;;5052583;28;20108;-77
2021/06/19 04:29:22;;;;;;;22.17;13.00;;;;;;;;;;5052573;28;20501;-77
2021/06/19 04:31:47;;;;;;;15.00;12.63;;;;;;;;;;5053783;28;20037;-78
2021/06/19 04:34:13;;;;;;;299.67;34.75;;;;;;;;;;5053347;28;20543;-76
2021/06/19 04:36:38;;;;;;;48.60;12.95;;;;;;;;;;5053095;28;20494;-76
2021/06/19 04:39:04;;;;;;;24.83;11.45;;;;;;;;;;5053091;28;20491;-77
2021/06/19 04:41:36;;;;;;;21.08;11.07;;;;;;;;;;5052482;28;20028;-77
2021/06/19 04:46:27;;;;;;;34.92;11.65;;;;;;;;;;5053106;28;20115;-77
2021/06/19 04:48:53;;;;;;;19.45;11.82;;;;;;;;;;5052037;28;20029;-76
2021/06/19 04:51:18;;;;;;;23.98;12.52;;;;;;;;;;5053144;28;20500;-76
2021/06/19 04:53:44;;;;;;;28.23;15.73;;;;;;;;;;5053255;28;20047;-77
2021/06/19 04:56:10;;;;;;;23.20;15.43;;;;;;;;;;5052756;28;20048;-77
2021/06/19 04:58:35;;;;;;;24.02;14.40;;;;;;;;;;5052851;28;20028;-77
2021/06/19 05:01:01;;;;;;;25.33;12.95;;;;;;;;;;5051750;28;20036;-76
2021/06/19 05:03:27;;;;;;;16.50;12.18;;;;;;;;;;5052122;28;20553;-76
2021/06/19 05:05:52;;;;;;;17.90;12.48;;;;;;;;;;5051513;28;20465;-76
2021/06/19 05:08:18;;;;;;;44.47;14.23;;;;;;;;;;5051640;28;20049;-77
2021/06/19 05:10:44;;;;;;;17.23;12.23;;;;;;;;;;5050874;28;20025;-76
2021/06/19 05:13:10;;;;;;;22.98;13.23;;;;;;;;;;5052563;28;20039;-77
2021/06/19 05:15:35;;;;;;;25.67;13.55;;;;;;;;;;5052759;28;20029;-76
2021/06/19 05:18:01;;;;;;;21.15;12.70;;;;;;;;;;5052731;28;20041;-76
2021/06/19 05:20:28;;;;;;;33.10;14.07;;;;;;;;;;5052764;28;20031;-76
2021/06/19 05:22:57;;;;;;;17.45;12.57;;;;;;;;;;5052958;28;20033;-76
2021/06/19 05:25:23;;;;;;;31.50;12.45;;;;;;;;;;5051852;28;20150;-76
2021/06/19 05:27:48;;;;;;;46.58;14.57;;;;;;;;;;5050760;28;20087;-76
2021/06/19 05:30:14;;;;;;;46.80;13.30;;;;;;;;;;5051962;28;20048;-77
2021/06/19 05:32:40;;;;;;;21.95;12.60;;;;;;;;;;5051884;28;20043;-79
2021/06/19 05:35:07;;;;;;;39.63;15.27;;;;;;;;;;5054125;28;20033;-83
2021/06/19 05:37:32;;;;;;;30.13;14.45;;;;;;;;;;5056553;28;20383;-79
2021/06/19 05:39:57;;;;;;;22.17;13.25;;;;;;;;;;5060060;28;20051;-80
2021/06/19 05:42:23;;;;;;;16.25;13.20;;;;;;;;;;5060837;28;20110;-79
2021/06/19 05:44:48;;;;;;;16.77;13.20;;;;;;;;;;5060094;28;20056;-80
2021/06/19 05:47:14;;;;;;;21.55;13.75;;;;;;;;;;5056786;28;20044;-79
2021/06/19 05:49:40;;;;;;;19.02;12.82;;;;;;;;;;5059214;28;20040;-80
2021/06/19 05:52:07;;;;;;;26.40;15.63;;;;;;;;;;5060226;28;20048;-79
2021/06/19 05:54:36;;;;;;;31.40;18.13;;;;;;;;;;5058588;28;20029;-80
2021/06/19 05:57:06;;;;;;;26.85;13.93;;;;;;;;;;5060041;28;20036;-80
2021/06/19 05:59:31;;;;;;;26.25;13.88;;;;;;;;;;5052373;28;20393;-80
2021/06/19 06:01:57;;;;;;;20.92;13.38;;;;;;;;;;5040547;28;20108;-80
2021/06/19 06:04:24;;;;;;;14.57;12.40;;;;;;;;;;5042447;28;20056;-81
2021/06/19 06:06:49;;;;;;;19.45;13.18;;;;;;;;;;5052568;28;20048;-81
2021/06/19 06:09:15;;;;;;;17.20;12.45;;;;;;;;;;5060654;28;20033;-81
2021/06/19 06:11:40;;;;;;;19.58;12.60;;;;;;;;;;5059841;28;20043;-81
2021/06/19 06:14:08;;;;;;;19.58;11.73;;;;;;;;;;5059163;28;20120;-80
2021/06/19 06:16:34;;;;;;;15.98;10.95;;;;;;;;;;5057695;28;20037;-80
2021/06/19 06:19:00;;;;;;;18.67;10.60;;;;;;;;;;5042764;28;20034;-79
2021/06/19 06:21:26;;;;;;;15.02;9.20;;;;;;;;;;5038994;28;20041;-79
2021/06/19 06:23:51;;;;;;;17.33;8.73;;;;;;;;;;5039984;28;20053;-80
2021/06/19 06:26:16;;;;;;;11.82;8.27;;;;;;;;;;5043113;28;20029;-77
2021/06/19 06:28:43;;;;;;;14.63;8.35;;;;;;;;;;5054895;28;20041;-78
2021/06/19 06:31:08;;;;;;;14.70;7.93;;;;;;;;;;5057395;28;20036;-77
2021/06/19 06:33:34;;;;;;;14.43;7.93;;;;;;;;;;5057425;28;20040;-78
2021/06/19 06:36:00;;;;;;;11.48;6.65;;;;;;;;;;5055712;28;20101;-77
2021/06/19 06:38:26;;;;;;;13.82;6.93;;;;;;;;;;5044016;28;20056;-76
2021/06/19 06:40:51;;;;;;;13.90;8.73;;;;;;;;;;5038030;28;20052;-76
2021/06/19 06:43:17;;;;;;;13.80;7.75;;;;;;;;;;5045831;28;20033;-76
2021/06/19 06:45:43;;;;;;;16.98;7.85;;;;;;;;;;5044190;28;20086;-77
2021/06/19 06:48:08;;;;;;;20.20;8.73;;;;;;;;;;5056936;28;20482;-77
2021/06/19 06:50:34;;;;;;;14.23;7.35;;;;;;;;;;5075191;28;20132;-78
2021/06/19 06:52:59;;;;;;;11.55;6.38;;;;;;;;;;5075065;28;20033;-78
2021/06/19 06:55:25;;;;;;;15.75;5.97;;;;;;;;;;5077176;28;20028;-78
2021/06/19 06:57:50;;;;;;;16.35;6.68;;;;;;;;;;5077797;28;20036;-77
2021/06/19 07:00:16;;;;;;;13.00;6.00;;;;;;;;;;5075283;28;20043;-79
2021/06/19 07:02:43;;;;;;;13.00;6.05;;;;;;;;;;5076172;28;20086;-79
2021/06/19 07:05:09;;;;;;;15.10;7.45;;;;;;;;;;5075580;28;20033;-78
2021/06/19 07:07:39;;;;;;;15.07;5.90;;;;;;;;;;5075094;28;20042;-78
2021/06/19 07:10:06;;;;;;;8.57;5.10;;;;;;;;;;5075885;28;20124;-77
2021/06/19 07:12:32;;;;;;;16.70;5.13;;;;;;;;;;5074842;28;20040;-78
2021/06/19 07:14:57;;;;;;;9.80;4.07;;;;;;;;;;5059389;28;20029;-77
2021/06/19 07:17:23;;;;;;;13.10;4.82;;;;;;;;;;5044658;28;20036;-76
2021/06/19 07:19:48;;;;;;;8.23;3.88;;;;;;;;;;5043095;28;20029;-77
2021/06/19 07:22:14;;;;;;;7.75;3.35;;;;;;;;;;5045478;28;20033;-78
2021/06/19 07:24:39;;;;;;;12.80;3.95;;;;;;;;;;5047077;28;20052;-82
2021/06/19 07:27:05;;;;;;;16.92;3.75;;;;;;;;;;5038190;28;20073;-80
2021/06/19 07:29:31;;;;;;;10.98;3.85;;;;;;;;;;5038477;28;20049;-77
2021/06/19 07:31:57;;;;;;;8.40;3.28;;;;;;;;;;5037329;28;20041;-79
2021/06/19 07:34:22;;;;;;;9.65;3.50;;;;;;;;;;5037816;28;20468;-79
2021/06/19 07:36:48;;;;;;;13.82;3.45;;;;;;;;;;5039865;28;20488;-82
2021/06/19 07:39:14;;;;;;;6.25;3.22;;;;;;;;;;5040451;28;20079;-80
2021/06/19 07:41:40;;;;;;;10.80;4.10;;;;;;;;;;5038767;28;20052;-81
2021/06/19 07:44:05;;;;;;;13.25;4.35;;;;;;;;;;5040290;28;20033;-81
2021/06/19 07:46:31;;;;;;;10.73;3.70;;;;;;;;;;5040468;28;20449;-80
2021/06/19 07:48:56;;;;;;;6.72;3.60;;;;;;;;;;5073170;28;20036;-80
2021/06/19 07:51:22;;;;;;;16.92;3.95;;;;;;;;;;5079853;28;20406;-82
2021/06/19 07:53:47;;;;;;;10.85;3.03;;;;;;;;;;5079167;28;20153;-80
2021/06/19 07:56:13;;;;;;;10.85;3.47;;;;;;;;;;5079095;28;20037;-81
2021/06/19 07:58:38;;;;;;;17.90;3.75;;;;;;;;;;5078229;28;20043;-80
2021/06/19 08:01:03;;;;;;;13.80;3.78;;;;;;;;;;5078869;28;20135;-80
2021/06/19 08:03:29;;;;;;;11.18;3.17;;;;;;;;;;5078643;28;20017;-81
2021/06/19 08:05:55;;;;;;;11.45;3.25;;;;;;;;;;5078812;28;20560;-81
2021/06/19 08:08:21;;;;;;;10.43;3.47;;;;;;;;;;5077337;28;20531;-81
2021/06/19 08:10:49;;;;;;;9.38;3.45;;;;;;;;;;5078739;28;20107;-81
2021/06/19 08:13:15;;;;;;;19.50;3.75;;;;;;;;;;5077027;28;20537;-79
2021/06/19 08:15:40;;;;;;;9.38;2.95;;;;;;;;;;5077728;28;20114;-80
2021/06/19 08:18:06;;;;;;;7.35;3.42;;;;;;;;;;5067083;28;20055;-80
2021/06/19 08:20:31;;;;;;;15.63;4.28;;;;;;;;;;5058780;28;20059;-80
2021/06/19 08:22:57;;;;;;;11.45;3.95;;;;;;;;;;5060898;28;20033;-80
2021/06/19 08:25:23;;;;;;;10.23;3.35;;;;;;;;;;5059264;28;20075;-82
2021/06/19 08:27:48;;;;;;;6.78;3.17;;;;;;;;;;5058649;28;20033;-80
2021/06/19 08:30:14;;;;;;;11.02;3.60;;;;;;;;;;5058945;28;20441;-81
2021/06/19 08:32:40;;;;;;;8.13;3.05;;;;;;;;;;5055250;28;20082;-78
2021/06/19 08:35:06;;;;;;;15.05;3.50;;;;;;;;;;5053222;28;20037;-78
2021/06/19 08:37:32;;;;;;;11.13;3.45;;;;;;;;;;5053258;28;20044;-78
2021/06/19 08:39:58;;;;;;;7.95;3.08;;;;;;;;;;5053545;28;20033;-78
2021/06/19 08:42:24;;;;;;;11.35;3.72;;;;;;;;;;5054429;28;20037;-81
2021/06/19 08:44:51;;;;;;;12.88;3.30;;;;;;;;;;5056962;28;20075;-79
2021/06/19 08:47:17;;;;;;;5.00;2.60;;;;;;;;;;5056513;28;20033;-78
2021/06/19 08:49:44;;;;;;;15.82;3.22;;;;;;;;;;5054069;28;20059;-80
2021/06/19 08:52:10;;;;;;;7.25;2.63;;;;;;;;;;5054455;28;20025;-79
2021/06/19 08:54:39;;;;;;;8.73;3.25;;;;;;;;;;5057416;28;20453;-81
2021/06/19 08:57:16;;;;;;;5.40;2.72;;;;;;;;;;5058043;28;20406;-79
2021/06/19 08:59:50;;;;;;;11.50;3.08;;;;;;;;;;5058064;28;20037;-79
2021/06/19 09:02:17;;;;;;;6.15;3.13;;;;;;;;;;5055914;28;20063;-78
2021/06/19 09:04:52;;;;;;;5.18;2.72;;;;;;;;;;5055416;28;20467;-78
2021/06/19 09:07:47;;;;;;;12.18;3.38;;;;;;;;;;5057883;28;20487;-82
2021/06/19 09:10:19;;;;;;;9.25;2.60;;;;;;;;;;5050090;28;20084;-82
2021/06/19 09:13:12;;;;;;;16.40;3.20;;;;;;;;;;5040807;28;20041;-81
2021/06/19 09:15:48;;;;;;;12.65;2.90;;;;;;;;;;5045631;28;20487;-81
2021/06/19 09:18:22;;;;;;;11.18;3.13;;;;;;;;;;5044782;28;20049;-81
2021/06/19 09:20:53;;;;;;;;;;;;;;;;;;5046640;28;20037;-82
2021/06/19 09:23:27;;;;;;;7.30;3.45;;;;;;;;;;5045271;28;19992;-80
2021/06/19 09:26:18;;;;;;;10.93;2.90;;;;;;;;;;5055857;28;20029;-82
2021/06/19 09:29:10;;;;;;;7.55;2.75;;;;;;;;;;5066490;28;20040;-82
2021/06/19 09:31:43;;;;;;;7.20;2.53;;;;;;;;;;5059411;28;20033;-80
2021/06/19 09:34:10;;;;;;;12.77;2.80;;;;;;;;;;5051910;28;20025;-77
2021/06/19 09:36:43;;;;;;;6.22;2.85;;;;;;;;;;5053030;28;20032;-78
2021/06/19 09:39:11;;;;;;;7.97;3.15;;;;;;;;;;5058727;28;20037;-77
2021/06/19 09:42:06;;;;;;;5.30;3.15;;;;;;;;;;5041540;28;20038;-77
2021/06/19 09:44:45;;;;;;;8.13;2.75;;;;;;;;;;5042129;28;20037;-79
2021/06/19 09:47:13;;;;;;;4.55;2.20;;;;;;;;;;5043644;28;20049;-80
2021/06/19 09:49:41;;;;;;;11.48;3.22;;;;;;;;;;5059502;28;20033;-78
2021/06/19 09:52:11;;;;;;;7.20;2.50;;;;;;;;;;5048055;28;20128;-80
2021/06/19 09:54:41;;;;;;;5.30;2.05;;;;;;;;;;5039779;28;20060;-80
2021/06/19 09:57:56;;;;;;;10.50;3.20;;;;;;;;;;5042262;28;20177;-80
2021/06/19 10:00:22;;;;;;;7.10;2.50;;;;;;;;;;5040561;28;20503;-80
2021/06/19 10:02:48;;;;;;;6.03;2.25;;;;;;;;;;5041824;28;20029;-78
2021/06/19 10:05:14;;;;;;;4.57;1.83;;;;;;;;;;5041993;28;20117;-78
2021/06/19 10:07:40;;;;;;;7.00;2.50;;;;;;;;;;5042026;28;20065;-78
2021/06/19 10:10:10;;;;;;;3.35;2.45;;;;;;;;;;5042527;28;20077;-79
2021/06/19 10:12:37;;;;;;;11.23;2.10;;;;;;;;;;5042790;28;20649;-79
2021/06/19 10:15:11;;;;;;;6.35;1.90;;;;;;;;;;5042864;28;20444;-79
2021/06/19 10:17:42;;;;;;;7.35;1.90;;;;;;;;;;5040693;28;20091;-79
2021/06/19 10:20:10;;;;;;;9.43;3.05;;;;;;;;;;5039211;28;20156;-78
2021/06/19 10:22:38;;;;;;;3.78;1.77;;;;;;;;;;5022169;28;20079;-79
2021/06/19 10:25:08;;;;;;;7.25;2.10;;;;;;;;;;5038357;28;20059;-78
2021/06/19 10:27:36;;;;;;;5.30;1.73;;;;;;;;;;5036520;28;20041;-79
2021/06/19 10:30:04;;;;;;;3.28;1.52;;;;;;;;;;5038249;28;20104;-78
2021/06/19 10:32:51;;;;;;;7.07;2.33;;;;;;;;;;5037868;28;20038;-78
2021/06/19 10:35:18;;;;;;;4.05;2.28;;;;;;;;;;5036883;28;20043;-78
2021/06/19 10:37:45;;;;;;;4.32;1.80;;;;;;;;;;5038833;28;20036;-79
2021/06/19 10:40:15;;;;;;;4.85;1.60;;;;;;;;;;5037740;28;20592;-78
2021/06/19 10:42:40;;;;;;;5.03;1.60;;;;;;;;;;5037934;28;20041;-78
2021/06/19 10:45:14;;;;;;;2.97;1.45;;;;;;;;;;5037819;28;20411;-79
2021/06/19 10:47:59;;;;;;;;;;;;;;;;;;5039956;28;20139;-80
2021/06/19 10:50:24;;;;;;;5.57;1.60;;;;;;;;;;5037933;28;19920;-80
2021/06/19 10:53:09;;;;;;;6.70;1.58;;;;;;;;;;5038460;28;20033;-79
2021/06/19 10:55:51;;;;;;;2.80;1.40;;;;;;;;;;5038265;28;20055;-78
2021/06/19 10:58:27;;;;;;;2.22;1.58;;;;;;;;;;5037774;28;20407;-79
2021/06/19 11:00:59;;;;;;;8.75;1.95;;;;;;;;;;5055811;28;20399;-80
2021/06/19 11:03:48;;;;;;;2.60;1.50;;;;;;;;;;5057728;28;20047;-78
2021/06/19 11:06:30;;;;;;;3.42;1.58;;;;;;;;;;5059283;28;20041;-78
2021/06/19 11:09:00;;;;;;;4.43;1.40;;;;;;;;;;5062696;28;20029;-78
2021/06/19 11:11:55;;;;;;;8.10;1.90;;;;;;;;;;5076286;28;20036;-78
2021/06/19 11:14:41;;;;;;;6.05;1.50;;;;;;;;;;5077792;28;20111;-78
2021/06/19 11:17:21;;;;;;;3.80;1.70;;;;;;;;;;5076626;28;20043;-78
2021/06/19 11:19:49;;;;;;;7.93;2.00;;;;;;;;;;5076036;28;20043;-78
2021/06/19 11:22:38;;;;;;;5.25;1.60;;;;;;;;;;5076561;28;20043;-78
2021/06/19 11:25:20;;;;;;;2.78;1.70;;;;;;;;;;5076721;28;20139;-79
2021/06/19 11:27:56;;;;;;;2.97;1.38;;;;;;;;;;5074387;28;20059;-78
2021/06/19 11:30:34;;;;;;;9.90;2.72;;;;;;;;;;5076038;28;20044;-78
2021/06/19 11:33:39;;;;;;;3.50;1.70;;;;;;;;;;5074540;28;20120;-78
2021/06/19 11:36:04;;;;;;;4.40;1.83;;;;;;;;;;5075526;28;20044;-78
2021/06/19 11:38:48;;;;;;;9.13;1.70;;;;;;;;;;5074594;28;20051;-78
2021/06/19 11:41:19;;;;;;;6.70;2.00;;;;;;;;;;5055951;28;20037;-78
2021/06/19 11:43:45;;;;;;;5.57;1.75;;;;;;;;;;5055045;28;20037;-78
2021/06/19 11:46:11;;;;;;;3.58;1.77;;;;;;;;;;5055342;28;20102;-78
2021/06/19 11:48:58;;;;;;;4.55;1.70;;;;;;;;;;5054207;28;20466;-80
2021/06/19 11:51:25;;;;;;;4.97;2.00;;;;;;;;;;5054623;28;20041;-79
2021/06/19 11:53:52;;;;;;;3.75;1.98;;;;;;;;;;5054761;28;20037;-78
2021/06/19 11:56:25;;;;;;;9.00;2.08;;;;;;;;;;5056211;28;20037;-79
2021/06/19 11:59:00;;;;;;;7.15;2.20;;;;;;;;;;5056013;28;20040;-80
2021/06/19 12:01:37;;;;;;;7.45;2.17;;;;;;;;;;5056058;28;20037;-79
2021/06/19 12:04:13;;;;;;;4.65;2.22;;;;;;;;;;5055296;28;20051;-79
2021/06/19 12:06:38;;;;;;;11.65;1.98;;;;;;;;;;5056618;28;20029;-79
2021/06/19 12:09:05;;;;;;;2.47;1.80;;;;;;;;;;5053677;28;20048;-79
2021/06/19 12:11:34;;;;;;;4.88;1.88;;;;;;;;;;5036365;28;20034;-79
2021/06/19 12:14:00;;;;;;;4.47;2.00;;;;;;;;;;5036629;28;20037;-79
2021/06/19 12:16:30;;;;;;;5.90;2.20;;;;;;;;;;5036408;28;20067;-80
2021/06/19 12:19:02;;;;;;;5.55;2.15;;;;;;;;;;5036691;28;20045;-79
2021/06/19 12:21:35;;;;;;;5.22;1.75;;;;;;;;;;5036304;28;20123;-79
2021/06/19 12:24:02;;;;;;;4.43;1.80;;;;;;;;;;5037073;28;20051;-80
2021/06/19 12:26:28;;;;;;;5.55;1.80;;;;;;;;;;5034656;28;20110;-79
2021/06/19 12:28:54;;;;;;;5.22;1.95;;;;;;;;;;5036345;28;20465;-78
2021/06/19 12:31:27;;;;;;;6.90;1.90;;;;;;;;;;5036335;28;20052;-78
2021/06/19 12:34:03;;;;;;;3.80;1.90;;;;;;;;;;5036159;28;20029;-78
2021/06/19 12:36:29;;;;;;;5.25;1.63;;;;;;;;;;5036270;28;20463;-79
2021/06/19 12:38:56;;;;;;;6.53;1.98;;;;;;;;;;5035064;28;20047;-79
2021/06/19 12:41:21;;;;;;;5.55;2.13;;;;;;;;;;5035221;28;20543;-79
2021/06/19 12:43:49;;;;;;;4.18;1.77;;;;;;;;;;5036276;28;20038;-78
2021/06/19 12:46:18;;;;;;;2.75;1.77;;;;;;;;;;5035639;28;20064;-79
2021/06/19 12:48:44;;;;;;;2.85;1.65;;;;;;;;;;5034601;28;20080;-78
2021/06/19 12:51:29;;;;;;;4.03;2.25;;;;;;;;;;5035097;28;20049;-78
2021/06/19 12:54:13;;;;;;;;;;;;;;;;;;5034780;28;20033;-78
2021/06/19 12:56:57;;;;;;;2.83;1.60;;;;;;;;;;5035479;28;19996;-78
2021/06/19 12:59:23;;;;;;;8.05;2.30;;;;;;;;;;5035846;28;20395;-78
2021/06/19 13:02:04;;;;;;;4.85;1.90;;;;;;;;;;5035015;28;20037;-80
2021/06/19 13:04:30;;;;;;;5.85;1.80;;;;;;;;;;5035905;28;20034;-80
2021/06/19 13:07:12;;;;;;;4.80;2.00;;;;;;;;;;5033763;28;20037;-78
2021/06/19 13:09:51;;;;;;;3.40;1.80;;;;;;;;;;5032899;28;20044;-79
2021/06/19 13:12:20;;;;;;;8.10;1.88;;;;;;;;;;5033341;28;20037;-78
2021/06/19 13:14:47;;;;;;;9.27;2.00;;;;;;;;;;5045785;28;20033;-78
2021/06/19 13:17:14;;;;;;;7.72;1.70;;;;;;;;;;5073302;28;20029;-79
2021/06/19 13:19:41;;;;;;;9.00;1.80;;;;;;;;;;5073255;28;20036;-78
2021/06/19 13:22:06;;;;;;;6.07;2.15;;;;;;;;;;5073191;28;20032;-78
2021/06/19 13:24:34;;;;;;;3.53;1.92;;;;;;;;;;5071728;28;20029;-78
2021/06/19 13:27:12;;;;;;;5.10;2.25;;;;;;;;;;5073064;28;20557;-78
2021/06/19 13:29:42;;;;;;;14.60;1.95;;;;;;;;;;5073930;28;20119;-78
2021/06/19 13:32:09;;;;;;;10.98;2.08;;;;;;;;;;5074948;28;20040;-79
2021/06/19 13:34:36;;;;;;;3.22;2.00;;;;;;;;;;5076192;28;20393;-79
2021/06/19 13:37:10;;;;;;;4.95;2.30;;;;;;;;;;5075903;28;20041;-78
2021/06/19 13:39:38;;;;;;;2.83;2.10;;;;;;;;;;5076036;28;20044;-78
2021/06/19 13:42:09;;;;;;;5.50;2.20;;;;;;;;;;5062019;28;20033;-78
2021/06/19 13:44:40;;;;;;;3.67;1.80;;;;;;;;;;5056531;28;20102;-78
2021/06/19 13:47:10;;;;;;;4.47;2.08;;;;;;;;;;5056466;28;20039;-79
2021/06/19 13:49:37;;;;;;;4.70;1.80;;;;;;;;;;5056363;28;20135;-78
2021/06/19 13:52:05;;;;;;;2.53;1.80;;;;;;;;;;5054708;28;20037;-79
2021/06/19 13:54:40;;;;;;;6.28;1.90;;;;;;;;;;5057520;28;20036;-78
2021/06/19 13:57:07;;;;;;;5.82;1.70;;;;;;;;;;5058750;28;20048;-79
2021/06/19 13:59:35;;;;;;;2.70;1.80;;;;;;;;;;5060148;28;20037;-78
2021/06/19 14:02:01;;;;;;;10.77;2.13;;;;;;;;;;5063020;28;20044;-78
2021/06/19 14:04:29;;;;;;;5.20;2.00;;;;;;;;;;5062735;28;20112;-78
2021/06/19 14:06:54;;;;;;;3.42;1.70;;;;;;;;;;5062794;28;20053;-79
2021/06/19 14:09:20;;;;;;;3.22;1.85;;;;;;;;;;5061029;28;20474;-78
2021/06/19 14:11:46;;;;;;;3.78;1.92;;;;;;;;;;5061405;28;20442;-78
2021/06/19 14:14:11;;;;;;;5.72;2.00;;;;;;;;;;5063269;28;20067;-78
2021/06/19 14:16:36;;;;;;;2.25;1.70;;;;;;;;;;5061656;28;20052;-78
2021/06/19 14:19:02;;;;;;;6.45;2.38;;;;;;;;;;5063004;28;20045;-78
2021/06/19 14:21:28;;;;;;;5.25;1.98;;;;;;;;;;5063524;28;20060;-78
2021/06/19 14:23:53;;;;;;;4.47;1.95;;;;;;;;;;5063077;28;20043;-78
2021/06/19 14:26:25;;;;;;;4.32;2.00;;;;;;;;;;5062742;28;20033;-78
2021/06/19 14:28:50;;;;;;;3.25;1.92;;;;;;;;;;5063538;28;20064;-79
2021/06/19 14:31:16;;;;;;;3.10;1.92;;;;;;;;;;5063669;28;20041;-78
2021/06/19 14:33:42;;;;;;;3.33;1.85;;;;;;;;;;5062685;28;20033;-78
2021/06/19 14:36:08;;;;;;;3.63;2.00;;;;;;;;;;5062851;28;20430;-79
2021/06/19 14:38:34;;;;;;;2.83;1.77;;;;;;;;;;5062136;28;20044;-79
2021/06/19 14:41:00;;;;;;;6.55;1.90;;;;;;;;;;5060611;28;20411;-78